createdAt,value
2019-04-01T00:01:29.638Z,1.30
2019-04-01T00:06:34.321Z,1.50
2019-04-01T00:11:39.064Z,1.53
2019-04-01T00:16:43.877Z,1.40
2019-04-01T00:21:48.628Z,1.43
2019-04-01T00:26:53.349Z,1.10
2019-04-01T00:31:58.118Z,1.10
2019-04-01T00:37:02.858Z,1.10
2019-04-01T00:42:26.725Z,1.30
2019-04-01T00:47:31.449Z,1.63
2019-04-01T00:52:36.170Z,1.33
2019-04-01T00:57:41.205Z,1.10
2019-04-01T01:02:46.059Z,1.27
2019-04-01T01:07:50.801Z,1.53
2019-04-01T01:12:55.913Z,1.33
2019-04-01T01:18:00.674Z,1.40
2019-04-01T01:23:05.366Z,1.20
2019-04-01T01:28:10.136Z,1.40
2019-04-01T01:33:14.903Z,1.53
2019-04-01T01:38:19.633Z,1.40
2019-04-01T01:43:24.434Z,1.13
2019-04-01T01:48:29.408Z,1.40
2019-04-01T01:53:34.111Z,1.70
2019-04-01T01:58:38.815Z,1.20
2019-04-01T02:03:43.538Z,1.77
2019-04-01T02:08:48.268Z,1.33
2019-04-01T02:13:52.932Z,1.40
2019-04-01T02:18:57.754Z,1.30
2019-04-01T02:24:02.440Z,1.30
2019-04-01T02:29:07.220Z,1.50
2019-04-01T02:34:11.948Z,1.43
2019-04-01T02:39:16.663Z,1.13
2019-04-01T02:44:21.353Z,1.70
2019-04-01T02:49:26.040Z,1.40
2019-04-01T02:54:30.738Z,1.60
2019-04-01T03:00:02.530Z,1.20
2019-04-01T03:05:07.477Z,1.20
2019-04-01T03:10:12.213Z,1.50
2019-04-01T03:15:16.953Z,1.47
2019-04-01T03:20:21.782Z,1.57
2019-04-01T03:25:26.630Z,1.63
2019-04-01T03:30:31.343Z,1.57
2019-04-01T03:35:36.017Z,1.70
2019-04-01T03:40:40.725Z,1.57
2019-04-01T03:45:45.512Z,1.67
2019-04-01T03:50:50.260Z,1.20
2019-04-01T03:55:54.932Z,1.60
2019-04-01T04:00:59.623Z,1.70
2019-04-01T04:06:04.671Z,1.83
2019-04-01T04:11:09.424Z,1.83
2019-04-01T04:16:14.124Z,1.80
2019-04-01T04:21:18.762Z,1.50
2019-04-01T04:26:23.905Z,1.50
2019-04-01T04:31:28.690Z,1.50
2019-04-01T04:36:33.385Z,1.93
2019-04-01T04:41:38.243Z,1.53
2019-04-01T04:46:43.164Z,1.67
2019-04-01T04:51:47.915Z,1.97
2019-04-01T04:56:52.762Z,1.90
2019-04-01T05:01:57.618Z,1.80
2019-04-01T05:07:02.295Z,1.70
2019-04-01T05:12:06.996Z,1.90
2019-04-01T05:17:11.671Z,1.73
2019-04-01T05:22:17.548Z,1.93
2019-04-01T05:27:25.677Z,2.03
2019-04-01T05:32:32.344Z,2.33
2019-04-01T05:37:37.384Z,2.10
2019-04-01T05:42:43.204Z,2.43
2019-04-01T05:47:50.642Z,2.07
2019-04-01T05:52:56.258Z,2.23
2019-04-01T05:58:01.116Z,2.00
2019-04-01T06:03:05.948Z,2.10
2019-04-01T06:08:10.956Z,2.30
2019-04-01T06:13:16.081Z,2.20
2019-04-01T06:18:21.775Z,2.17
2019-04-01T06:23:28.163Z,2.33
2019-04-01T06:28:32.924Z,1.90
2019-04-01T06:33:37.833Z,1.73
2019-04-01T06:38:42.611Z,1.47
2019-04-01T06:43:47.324Z,1.80
2019-04-01T06:48:52.207Z,1.97
2019-04-01T06:53:57.111Z,1.50
2019-04-01T06:59:01.953Z,1.40
2019-04-01T07:04:06.915Z,1.20
2019-04-01T07:09:11.701Z,1.40
2019-04-01T07:14:16.934Z,1.50
2019-04-01T07:19:21.782Z,1.57
2019-04-01T07:24:27.091Z,1.70
2019-04-01T07:29:31.893Z,1.10
2019-04-01T07:34:36.716Z,1.20
2019-04-01T07:39:41.387Z,1.20
2019-04-01T07:44:46.085Z,1.13
2019-04-01T07:49:51.312Z,1.20
2019-04-01T07:54:55.995Z,1.53
2019-04-01T08:00:01.834Z,1.10
2019-04-01T08:05:07.840Z,1.15
2019-04-01T08:10:13.032Z,0.73
2019-04-01T08:15:21.159Z,1.00
2019-04-01T08:20:24.204Z,0.90
2019-04-01T08:25:28.848Z,0.90
2019-04-01T08:30:33.592Z,0.77
2019-04-01T08:35:39.974Z,1.10
2019-04-01T08:40:44.780Z,1.00
2019-04-01T08:45:49.500Z,0.90
2019-04-01T08:50:54.560Z,0.90
2019-04-01T08:56:00.903Z,0.60
2019-04-01T09:01:06.026Z,0.77
2019-04-01T09:06:13.981Z,0.67
2019-04-01T09:11:18.801Z,0.87
2019-04-01T09:16:23.937Z,0.90
2019-04-01T09:21:28.659Z,1.00
2019-04-01T09:26:33.797Z,0.80
2019-04-01T09:31:40.186Z,0.90
2019-04-01T09:36:44.859Z,0.63
2019-04-01T09:41:49.634Z,0.93
2019-04-01T09:46:54.391Z,0.90
2019-04-01T09:51:59.086Z,0.90
2019-04-01T09:57:16.778Z,1.23
2019-04-01T10:02:10.992Z,0.80
2019-04-01T10:07:15.673Z,0.90
2019-04-01T10:12:20.396Z,0.73
2019-04-01T10:17:25.065Z,0.80
2019-04-01T10:22:30.704Z,0.97
2019-04-01T10:27:35.465Z,0.70
2019-04-01T10:32:40.257Z,0.80
2019-04-01T10:37:45.244Z,0.53
2019-04-01T10:42:49.966Z,0.87
2019-04-01T10:47:54.993Z,0.80
2019-04-01T10:52:59.740Z,0.63
2019-04-01T10:58:04.465Z,0.87
2019-04-01T11:03:09.278Z,0.67
2019-04-01T11:08:15.853Z,0.70
2019-04-01T11:13:21.902Z,0.50
2019-04-01T11:18:26.967Z,0.63
2019-04-01T11:23:31.718Z,1.00
2019-04-01T11:28:36.386Z,0.70
2019-04-01T11:33:41.481Z,0.90
2019-04-01T11:38:46.286Z,0.78
2019-04-01T11:43:52.485Z,0.90
2019-04-01T11:48:57.382Z,0.97
2019-04-01T11:54:02.048Z,1.42
2019-04-01T11:59:08.309Z,0.90
2019-04-01T12:04:13.130Z,1.00
2019-04-01T12:09:17.889Z,1.10
2019-04-01T12:14:22.643Z,0.82
2019-04-01T12:19:27.446Z,0.90
2019-04-01T12:24:32.275Z,1.10
2019-04-01T12:29:36.941Z,0.90
2019-04-01T12:34:42.379Z,0.97
2019-04-01T12:39:47.116Z,0.90
2019-04-01T12:44:51.865Z,1.15
2019-04-01T12:49:56.597Z,1.00
2019-04-01T12:55:01.356Z,0.93
2019-04-01T13:00:08.174Z,1.00
2019-04-01T13:05:13.452Z,0.80
2019-04-01T13:16:23.745Z,0.80
2019-04-01T13:21:28.991Z,0.70
2019-04-01T13:26:33.844Z,0.70
2019-04-01T13:31:38.547Z,1.00
2019-04-01T13:36:43.232Z,0.70
2019-04-01T13:41:47.877Z,0.80
2019-04-01T13:46:55.818Z,0.80
2019-04-01T13:51:59.526Z,0.90
2019-04-01T13:57:05.400Z,0.80
2019-04-01T14:02:10.079Z,0.80
2019-04-01T14:07:14.942Z,0.60
2019-04-01T14:12:21.541Z,0.85
2019-04-01T14:17:26.232Z,0.93
2019-04-01T14:22:30.918Z,0.98
2019-04-01T14:27:35.674Z,0.80
2019-04-01T14:32:40.436Z,0.60
2019-04-01T14:37:45.456Z,0.62
2019-04-01T14:42:50.232Z,0.62
2019-04-01T14:47:57.639Z,0.70
2019-04-01T14:53:01.429Z,0.90
2019-04-01T14:58:06.149Z,0.88
2019-04-01T15:03:10.796Z,1.15
2019-04-01T15:08:19.181Z,0.70
2019-04-01T15:13:21.935Z,0.85
2019-04-01T15:18:26.727Z,0.62
2019-04-01T15:23:31.467Z,0.72
2019-04-01T15:28:37.057Z,0.80
2019-04-01T15:33:41.951Z,0.80
2019-04-01T15:38:46.751Z,0.82
2019-04-01T15:43:51.539Z,0.85
2019-04-01T15:48:56.243Z,1.00
2019-04-01T15:54:01.476Z,0.90
2019-04-01T15:59:06.395Z,0.82
2019-04-01T16:04:11.064Z,0.80
2019-04-01T16:09:16.891Z,1.07
2019-04-01T16:14:21.588Z,1.00
2019-04-01T16:19:26.273Z,1.00
2019-04-01T16:24:31.332Z,1.00
2019-04-01T16:29:36.045Z,1.07
2019-04-01T16:34:42.330Z,1.20
2019-04-01T16:39:48.759Z,1.00
2019-04-01T16:44:54.545Z,1.30
2019-04-01T16:49:59.251Z,1.22
2019-04-01T16:55:06.929Z,0.98
2019-04-01T17:00:14.623Z,1.10
2019-04-01T17:05:23.595Z,1.12
2019-04-01T17:10:28.424Z,1.25
2019-04-01T17:15:33.788Z,1.50
2019-04-01T17:20:38.626Z,1.10
2019-04-01T17:25:44.281Z,1.37
2019-04-01T17:30:48.933Z,1.35
2019-04-01T17:35:54.029Z,1.50
2019-04-01T17:40:59.019Z,1.55
2019-04-01T17:46:04.656Z,1.62
2019-04-01T17:51:09.528Z,1.46
2019-04-01T17:56:14.324Z,1.22
2019-04-01T18:01:19.088Z,1.60
2019-04-01T18:06:23.756Z,1.80
2019-04-01T18:11:28.539Z,1.42
2019-04-01T18:16:33.417Z,1.52
2019-04-01T18:21:38.320Z,1.50
2019-04-01T18:26:43.118Z,1.30
2019-04-01T18:31:47.867Z,1.47
2019-04-01T18:36:52.614Z,1.30
2019-04-01T18:41:57.368Z,1.40
2019-04-01T18:47:03.925Z,1.35
2019-04-01T18:52:09.275Z,1.60
2019-04-01T18:57:14.327Z,1.60
2019-04-01T19:02:19.179Z,1.33
2019-04-01T19:07:23.994Z,1.42
2019-04-01T19:12:28.732Z,1.80
2019-04-01T19:17:33.443Z,1.80
2019-04-01T19:22:38.135Z,1.50
2019-04-01T19:27:42.910Z,1.82
2019-04-01T19:32:47.694Z,1.80
2019-04-01T19:37:53.400Z,1.90
2019-04-01T19:42:58.192Z,1.50
2019-04-01T19:48:03.421Z,1.70
2019-04-01T19:53:08.429Z,1.40
2019-04-01T19:58:13.145Z,1.70
2019-04-01T20:03:18.856Z,1.50
2019-04-01T20:08:23.555Z,1.70
2019-04-01T20:13:28.216Z,1.60
2019-04-01T20:18:32.961Z,1.60
2019-04-01T20:23:37.686Z,1.40
2019-04-01T20:28:42.536Z,1.70
2019-04-01T20:33:49.161Z,1.60
2019-04-01T20:38:53.953Z,1.57
2019-04-01T20:43:58.651Z,1.70
2019-04-01T20:49:03.407Z,1.77
2019-04-01T20:54:08.088Z,1.70
2019-04-01T20:59:12.801Z,2.10
2019-04-01T21:04:17.487Z,1.90
2019-04-01T21:09:22.129Z,1.50
2019-04-01T21:14:26.885Z,1.80
2019-04-01T21:19:31.656Z,1.70
2019-04-01T21:24:36.363Z,1.53
2019-04-01T21:29:41.089Z,1.60
2019-04-01T21:34:46.014Z,1.30
2019-04-01T21:39:50.825Z,2.37
2019-04-01T21:44:55.555Z,2.10
2019-04-01T21:50:00.227Z,2.00
2019-04-01T21:55:08.153Z,1.63
2019-04-01T22:00:18.061Z,2.00
2019-04-01T22:05:24.589Z,1.80
2019-04-01T22:10:29.275Z,1.80
2019-04-01T22:15:34.033Z,2.10
2019-04-01T22:20:40.063Z,2.07
2019-04-01T22:25:45.080Z,1.80
2019-04-01T22:30:49.860Z,1.80
2019-04-01T22:35:54.679Z,2.20
2019-04-01T22:41:00.264Z,2.37
2019-04-01T22:46:05.128Z,1.80
2019-04-01T22:51:09.818Z,1.90
2019-04-01T22:56:14.647Z,2.08
2019-04-01T23:01:19.472Z,2.12
2019-04-01T23:06:26.706Z,1.97
2019-04-01T23:11:30.677Z,2.10
2019-04-01T23:16:35.454Z,1.90
2019-04-01T23:21:40.498Z,2.40
2019-04-01T23:26:45.204Z,2.00
2019-04-01T23:31:49.952Z,2.20
2019-04-01T23:36:54.680Z,2.30
2019-04-01T23:41:59.757Z,1.90
2019-04-01T23:47:04.620Z,2.20
2019-04-01T23:52:09.340Z,2.37
2019-04-01T23:57:14.409Z,2.10
